createdAt,value
2023-02-15T00:00:15.162Z,99.9
2023-02-15T00:02:45.236Z,99.9
2023-02-15T00:05:15.192Z,99.9
2023-02-15T00:07:45.212Z,99.9
2023-02-15T00:10:15.271Z,99.9
2023-02-15T00:12:45.251Z,99.9
2023-02-15T00:15:15.294Z,99.9
2023-02-15T00:17:45.308Z,99.9
2023-02-15T00:20:15.315Z,99.9
2023-02-15T00:22:45.363Z,99.9
2023-02-15T00:25:15.365Z,99.9
2023-02-15T00:27:45.383Z,99.9
2023-02-15T00:30:15.555Z,99.9
2023-02-15T00:32:45.441Z,99.9
2023-02-15T00:35:15.464Z,99.9
2023-02-15T00:37:45.488Z,99.9
2023-02-15T00:40:15.513Z,99.9
2023-02-15T00:42:45.525Z,99.9
2023-02-15T00:45:17.311Z,99.9
2023-02-15T00:47:45.583Z,99.9
2023-02-15T00:50:15.611Z,99.9
2023-02-15T00:52:45.682Z,99.9
2023-02-15T00:55:15.665Z,99.9
2023-02-15T00:57:45.664Z,99.9
2023-02-15T01:02:45.709Z,99.9
2023-02-15T01:05:15.745Z,99.9
2023-02-15T01:07:45.762Z,99.9
2023-02-15T01:12:45.827Z,99.9
2023-02-15T01:17:45.874Z,99.9
2023-02-15T01:20:15.893Z,99.9
2023-02-15T01:22:45.926Z,99.9
2023-02-15T01:27:45.980Z,99.9
2023-02-15T01:30:16.122Z,99.9
2023-02-15T01:32:46.018Z,99.9
2023-02-15T01:35:16.058Z,99.9
2023-02-15T01:37:46.198Z,99.9
2023-02-15T01:40:16.086Z,99.9
2023-02-15T01:45:16.137Z,99.9
2023-02-15T01:47:46.166Z,99.9
2023-02-15T01:50:16.190Z,99.9
2023-02-15T01:52:46.212Z,99.9
2023-02-15T01:55:16.214Z,99.9
2023-02-15T01:57:46.251Z,99.9
2023-02-15T02:00:16.274Z,99.9
2023-02-15T02:02:46.333Z,99.9
2023-02-15T02:05:16.302Z,99.9
2023-02-15T02:07:46.330Z,99.9
2023-02-15T02:10:16.369Z,99.9
2023-02-15T02:12:46.382Z,99.9
2023-02-15T02:15:16.422Z,99.9
2023-02-15T02:17:46.434Z,99.9
2023-02-15T02:20:16.480Z,99.9
2023-02-15T02:22:46.492Z,99.9
2023-02-15T02:25:16.513Z,99.9
2023-02-15T02:27:46.556Z,99.9
2023-02-15T02:30:16.650Z,99.9
2023-02-15T02:35:16.613Z,99.9
2023-02-15T02:37:46.643Z,99.9
2023-02-15T02:40:16.650Z,99.9
2023-02-15T02:42:46.688Z,99.9
2023-02-15T02:45:16.690Z,99.9
2023-02-15T02:47:46.848Z,99.9
2023-02-15T02:50:16.751Z,99.9
2023-02-15T02:55:16.794Z,99.9
2023-02-15T02:57:46.854Z,99.9
2023-02-15T03:00:16.838Z,99.9
2023-02-15T03:02:46.916Z,99.9
2023-02-15T03:05:16.903Z,99.9
2023-02-15T03:07:46.908Z,99.9
2023-02-15T03:12:46.958Z,99.9
2023-02-15T03:15:17.005Z,99.9
2023-02-15T03:17:47.024Z,99.9
2023-02-15T03:20:17.034Z,99.9
2023-02-15T03:22:47.093Z,99.9
2023-02-15T03:25:17.084Z,99.9
2023-02-15T03:27:47.130Z,99.9
2023-02-15T03:30:17.201Z,99.9
2023-02-15T03:32:47.174Z,99.9
2023-02-15T03:35:17.194Z,99.9
2023-02-15T03:37:47.204Z,99.9
2023-02-15T03:40:17.236Z,99.9
2023-02-15T03:42:47.245Z,99.9
2023-02-15T03:45:17.283Z,99.9
2023-02-15T03:47:47.304Z,99.9
2023-02-15T03:50:17.323Z,99.9
2023-02-15T03:55:17.388Z,99.9
2023-02-15T03:57:47.394Z,99.9
2023-02-15T04:00:17.408Z,99.9
2023-02-15T04:02:47.451Z,99.9
2023-02-15T04:05:17.465Z,99.9
2023-02-15T04:10:17.515Z,99.9
2023-02-15T04:15:17.580Z,99.9
2023-02-15T04:17:47.585Z,99.9
2023-02-15T04:20:17.613Z,99.9
2023-02-15T04:22:47.630Z,99.9
2023-02-15T04:27:47.682Z,99.9
2023-02-15T04:30:17.809Z,99.9
2023-02-15T04:32:47.736Z,99.9
2023-02-15T04:35:17.741Z,99.9
2023-02-15T04:40:19.453Z,99.9
2023-02-15T04:42:47.812Z,99.9
2023-02-15T04:45:18.000Z,99.9
2023-02-15T04:47:47.877Z,99.9
2023-02-15T04:50:17.889Z,99.9
2023-02-15T04:52:47.915Z,99.9
2023-02-15T04:55:17.940Z,99.9
2023-02-15T04:57:47.960Z,99.9
2023-02-15T05:00:18.022Z,99.9
2023-02-15T05:02:48.020Z,99.9
2023-02-15T05:07:48.072Z,99.9
2023-02-15T05:10:18.080Z,99.9
2023-02-15T05:12:48.111Z,99.9
2023-02-15T05:15:18.141Z,99.9
2023-02-15T05:17:48.150Z,99.9
2023-02-15T05:20:18.174Z,99.9
2023-02-15T05:22:48.194Z,99.9
2023-02-15T05:25:18.234Z,99.9
2023-02-15T05:27:48.250Z,99.9
2023-02-15T05:30:18.409Z,99.9
2023-02-15T05:32:48.349Z,99.9
2023-02-15T05:35:18.358Z,99.9
2023-02-15T05:40:18.375Z,99.9
2023-02-15T05:45:18.413Z,99.9
2023-02-15T05:47:48.450Z,99.9
2023-02-15T05:50:18.473Z,99.9
2023-02-15T05:57:48.583Z,99.9
2023-02-15T06:00:18.558Z,99.9
2023-02-15T06:02:48.635Z,99.9
2023-02-15T06:05:18.615Z,99.9
2023-02-15T06:10:18.676Z,99.9
2023-02-15T06:15:18.715Z,99.9
2023-02-15T06:17:48.722Z,99.9
2023-02-15T06:27:48.845Z,99.9
2023-02-15T06:30:18.905Z,99.9
2023-02-15T06:32:48.903Z,99.9
2023-02-15T06:35:18.895Z,99.9
2023-02-15T06:37:48.926Z,99.9
2023-02-15T06:40:18.950Z,99.9
2023-02-15T06:42:48.990Z,99.9
2023-02-15T06:45:19.008Z,99.9
2023-02-15T06:50:19.036Z,99.9
2023-02-15T06:52:49.056Z,99.9
2023-02-15T06:55:19.091Z,99.9
2023-02-15T06:57:50.959Z,99.9
2023-02-15T07:00:19.144Z,99.9
2023-02-15T07:02:49.151Z,99.9
2023-02-15T07:07:49.197Z,99.9
2023-02-15T07:10:19.221Z,99.9
2023-02-15T07:15:19.320Z,99.9
2023-02-15T07:17:49.292Z,99.9
2023-02-15T07:20:19.328Z,99.9
2023-02-15T07:27:49.412Z,99.9
2023-02-15T07:30:19.530Z,99.9
2023-02-15T07:32:49.462Z,99.9
2023-02-15T07:35:19.473Z,99.9
2023-02-15T07:37:49.485Z,99.9
2023-02-15T07:40:19.523Z,99.9
2023-02-15T07:42:49.550Z,99.9
2023-02-15T07:45:19.552Z,99.9
2023-02-15T07:47:49.598Z,99.9
2023-02-15T07:50:19.598Z,99.9
2023-02-15T07:52:49.647Z,99.9
2023-02-15T07:55:19.665Z,99.9
2023-02-15T07:57:49.724Z,99.9
2023-02-15T08:00:19.691Z,99.9
2023-02-15T08:02:49.776Z,99.9
2023-02-15T08:05:19.755Z,99.9
2023-02-15T08:07:49.778Z,99.9
2023-02-15T08:10:19.798Z,99.9
2023-02-15T08:12:49.829Z,99.9
2023-02-15T08:15:19.859Z,99.9
2023-02-15T08:17:49.897Z,99.9
2023-02-15T08:20:19.966Z,99.9
2023-02-15T08:22:49.935Z,99.9
2023-02-15T08:25:19.962Z,99.9
2023-02-15T08:27:49.969Z,99.9
2023-02-15T08:32:50.046Z,99.9
2023-02-15T08:35:20.047Z,99.9
2023-02-15T08:40:20.135Z,99.9
2023-02-15T08:45:20.134Z,99.9
2023-02-15T08:47:50.167Z,99.9
2023-02-15T08:50:20.182Z,99.9
2023-02-15T08:55:20.214Z,99.9
2023-02-15T08:57:50.250Z,99.9
2023-02-15T09:00:20.288Z,99.9
2023-02-15T09:02:50.303Z,99.9
2023-02-15T09:05:20.324Z,99.9
2023-02-15T09:07:50.351Z,99.9
2023-02-15T09:10:20.376Z,99.9
2023-02-15T09:12:50.392Z,99.9
2023-02-15T09:15:20.430Z,99.9
2023-02-15T09:17:50.445Z,99.9
2023-02-15T09:20:20.470Z,99.9
2023-02-15T09:22:50.483Z,99.9
2023-02-15T09:25:20.515Z,99.9
2023-02-15T09:30:20.651Z,99.9
2023-02-15T09:32:50.577Z,99.9
2023-02-15T09:35:20.608Z,99.9
2023-02-15T09:37:50.618Z,99.9
2023-02-15T09:40:20.652Z,99.9
2023-02-15T09:45:20.706Z,99.9
2023-02-15T09:47:50.747Z,99.9
2023-02-15T09:50:20.747Z,99.9
2023-02-15T09:52:50.797Z,99.9
2023-02-15T09:57:50.813Z,99.9
2023-02-15T10:00:20.852Z,99.9
2023-02-15T10:02:50.856Z,99.9
2023-02-15T10:05:20.889Z,99.9
2023-02-15T10:07:50.905Z,99.9
2023-02-15T10:10:20.947Z,99.9
2023-02-15T10:12:50.960Z,99.9
2023-02-15T10:15:20.990Z,99.9
2023-02-15T10:17:51.000Z,99.9
2023-02-15T10:20:21.041Z,99.9
2023-02-15T10:22:51.069Z,99.9
2023-02-15T10:25:21.138Z,99.9
2023-02-15T10:27:51.223Z,99.9
2023-02-15T10:30:21.303Z,99.9
2023-02-15T10:32:51.155Z,99.9
2023-02-15T10:35:21.199Z,99.9
2023-02-15T10:37:51.211Z,99.9
2023-02-15T10:45:21.262Z,99.9
2023-02-15T10:47:51.282Z,99.9
2023-02-15T10:50:21.372Z,99.9
2023-02-15T10:52:51.339Z,99.9
2023-02-15T10:55:21.357Z,99.9
2023-02-15T10:57:51.381Z,99.9
2023-02-15T11:00:21.405Z,99.9
2023-02-15T11:05:21.561Z,99.9
2023-02-15T11:07:51.467Z,99.9
2023-02-15T11:10:21.543Z,99.9
2023-02-15T11:12:51.516Z,99.9
2023-02-15T11:15:21.552Z,99.9
2023-02-15T11:20:21.581Z,99.9
2023-02-15T11:22:51.635Z,99.9
2023-02-15T11:25:21.654Z,99.9
2023-02-15T11:27:51.713Z,99.9
2023-02-15T11:30:21.844Z,99.9
2023-02-15T11:32:51.697Z,99.9
2023-02-15T11:35:21.730Z,99.9
2023-02-15T11:37:51.756Z,99.9
2023-02-15T11:40:21.798Z,99.9
2023-02-15T11:42:51.802Z,99.9
2023-02-15T11:45:21.840Z,99.9
2023-02-15T11:47:51.844Z,99.9
2023-02-15T11:50:21.928Z,99.9
2023-02-15T11:52:51.891Z,99.9
2023-02-15T11:55:21.912Z,99.9
2023-02-15T11:57:51.941Z,99.6
2023-02-15T12:02:52.050Z,98.4
2023-02-15T12:05:22.013Z,97.8
2023-02-15T12:07:52.015Z,97.3
2023-02-15T12:10:22.068Z,96.9
2023-02-15T12:12:52.070Z,96.4
2023-02-15T12:15:22.106Z,95.5
2023-02-15T12:17:52.119Z,93.5
2023-02-15T12:20:22.141Z,92.3
2023-02-15T12:22:52.163Z,91.5
2023-02-15T12:25:22.206Z,90.6
2023-02-15T12:35:22.298Z,86.5
2023-02-15T12:37:52.312Z,85.5
2023-02-15T12:42:52.380Z,84
2023-02-15T12:45:22.412Z,84.2
2023-02-15T12:47:52.446Z,83
2023-02-15T12:50:22.414Z,83
2023-02-15T12:55:22.464Z,81.6
2023-02-15T12:57:52.504Z,80.4
2023-02-15T13:00:22.510Z,78.69
2023-02-15T13:02:52.557Z,78.5
2023-02-15T13:07:52.666Z,77.6
2023-02-15T13:10:22.621Z,76.9
2023-02-15T13:12:52.641Z,76.69
2023-02-15T13:15:22.655Z,76.6
2023-02-15T13:17:52.693Z,76.6
2023-02-15T13:22:52.726Z,76.19
2023-02-15T13:25:22.765Z,76.19
2023-02-15T13:27:52.773Z,76.3
2023-02-15T13:30:22.894Z,76
2023-02-15T13:32:52.827Z,75.69
2023-02-15T13:37:52.893Z,75.8
2023-02-15T13:40:22.887Z,76.19
2023-02-15T13:47:52.974Z,76.4
2023-02-15T13:50:23.065Z,76.6
2023-02-15T13:52:53.034Z,76.69
2023-02-15T13:55:23.047Z,76.69
2023-02-15T13:57:53.087Z,76.4
2023-02-15T14:00:23.106Z,76
2023-02-15T14:02:53.112Z,75.5
2023-02-15T14:05:23.693Z,75.3
2023-02-15T14:07:53.215Z,74.9
2023-02-15T14:10:23.245Z,74.9
2023-02-15T14:12:53.199Z,74.6
2023-02-15T14:15:23.276Z,74.6
2023-02-15T14:17:53.282Z,74.69
2023-02-15T14:20:23.290Z,74.5
2023-02-15T14:27:53.404Z,74.3
2023-02-15T14:30:23.570Z,74
2023-02-15T14:32:53.402Z,73.9
2023-02-15T14:35:23.416Z,74.6
2023-02-15T14:37:53.449Z,74.8
2023-02-15T14:40:23.507Z,75.8
2023-02-15T14:42:53.519Z,76.4
2023-02-15T14:45:23.506Z,76.9
2023-02-15T14:47:53.546Z,76.9
2023-02-15T14:50:23.563Z,77.4
2023-02-15T14:55:23.606Z,78.1
2023-02-15T14:57:53.627Z,77.9
2023-02-15T15:00:23.674Z,77.9
2023-02-15T15:02:53.677Z,78
2023-02-15T15:05:23.730Z,77.9
2023-02-15T15:07:53.772Z,77.6
2023-02-15T15:10:23.773Z,77.19
2023-02-15T15:15:23.799Z,77.4
2023-02-15T15:17:53.846Z,78.19
2023-02-15T15:22:53.872Z,80.19
2023-02-15T15:27:53.953Z,83.8
2023-02-15T15:35:23.987Z,89.5
2023-02-15T15:37:54.007Z,90
2023-02-15T15:40:24.041Z,90.4
2023-02-15T15:45:24.070Z,91.5
2023-02-15T15:48:06.107Z,92.7
2023-02-15T15:50:24.112Z,93
2023-02-15T15:55:24.179Z,94.2
2023-02-15T15:57:54.208Z,94.7
2023-02-15T16:05:24.250Z,96.4
2023-02-15T16:07:54.296Z,96.9
2023-02-15T16:12:54.325Z,98.3
2023-02-15T16:15:24.351Z,98.7
2023-02-15T16:17:54.383Z,99.1
2023-02-15T16:20:24.408Z,99.4
2023-02-15T16:22:54.440Z,99.6
2023-02-15T16:25:24.440Z,99.8
2023-02-15T16:27:54.464Z,99.9
2023-02-15T16:30:24.629Z,99.9
2023-02-15T16:35:24.584Z,99.9
2023-02-15T16:45:24.628Z,99.9
2023-02-15T16:47:54.650Z,99.9
2023-02-15T16:50:24.693Z,99.9
2023-02-15T16:52:54.698Z,99.9
2023-02-15T16:55:24.746Z,99.9
2023-02-15T16:57:54.760Z,99.9
2023-02-15T17:05:24.903Z,99.9
2023-02-15T17:07:54.863Z,99.9
2023-02-15T17:10:24.902Z,99.9
2023-02-15T17:12:54.915Z,99.9
2023-02-15T17:15:24.937Z,99.9
2023-02-15T17:17:54.948Z,99.9
2023-02-15T17:20:24.973Z,99.9
2023-02-15T17:22:54.995Z,99.9
2023-02-15T17:27:55.034Z,99.9
2023-02-15T17:30:25.108Z,99.9
2023-02-15T17:32:55.112Z,99.9
2023-02-15T17:37:55.136Z,99.9
2023-02-15T17:40:25.169Z,99.9
2023-02-15T17:47:55.228Z,99.9
2023-02-15T17:52:55.289Z,99.9
2023-02-15T17:55:25.310Z,99.9
2023-02-15T18:02:55.409Z,99.9
2023-02-15T18:05:25.418Z,99.9
2023-02-15T18:07:55.430Z,99.9
2023-02-15T18:10:25.460Z,99.9
2023-02-15T18:12:55.487Z,99.9
2023-02-15T18:15:25.499Z,99.9
2023-02-15T18:17:55.518Z,99.9
2023-02-15T18:27:55.660Z,99.9
2023-02-15T18:30:25.742Z,99.9
2023-02-15T18:32:55.659Z,99.9
2023-02-15T18:35:25.698Z,99.9
2023-02-15T18:37:55.703Z,99.9
2023-02-15T18:42:55.744Z,99.9
2023-02-15T18:45:25.777Z,99.9
2023-02-15T18:50:25.828Z,99.9
2023-02-15T18:52:55.845Z,99.9
2023-02-15T18:55:25.891Z,99.9
2023-02-15T18:57:55.901Z,99.9
2023-02-15T19:00:25.921Z,99.9
2023-02-15T19:02:56.040Z,99.9
2023-02-15T19:05:25.956Z,99.9
2023-02-15T19:07:55.993Z,99.9
2023-02-15T19:12:56.151Z,99.9
2023-02-15T19:15:26.059Z,99.9
2023-02-15T19:17:56.085Z,99.9
2023-02-15T19:20:26.092Z,99.9
2023-02-15T19:30:26.223Z,99.9
2023-02-15T19:32:56.227Z,99.9
2023-02-15T19:35:26.303Z,99.9
2023-02-15T19:40:26.292Z,99.9
2023-02-15T19:42:56.324Z,99.9
2023-02-15T19:45:26.342Z,99.9
2023-02-15T19:47:56.396Z,99.9
2023-02-15T19:50:26.397Z,99.9
2023-02-15T19:52:56.425Z,99.9
2023-02-15T19:55:26.468Z,99.9
2023-02-15T19:57:56.461Z,99.9
2023-02-15T20:00:26.491Z,99.9
2023-02-15T20:02:56.521Z,99.9
2023-02-15T20:05:26.543Z,99.9
2023-02-15T20:07:56.560Z,99.9
2023-02-15T20:10:26.565Z,99.9
2023-02-15T20:15:26.623Z,99.9
2023-02-15T20:17:56.654Z,99.9
2023-02-15T20:20:26.671Z,99.9
2023-02-15T20:22:56.701Z,99.9
2023-02-15T20:27:56.740Z,99.9
2023-02-15T20:30:26.815Z,99.9
2023-02-15T20:32:56.824Z,99.9
2023-02-15T20:35:26.806Z,99.9
2023-02-15T20:40:26.857Z,99.9
2023-02-15T20:42:56.938Z,99.9
2023-02-15T20:45:26.913Z,99.9
2023-02-15T20:47:56.944Z,99.9
2023-02-15T20:50:26.958Z,99.9
2023-02-15T20:52:57.004Z,99.9
2023-02-15T20:57:57.025Z,99.9
2023-02-15T21:00:27.039Z,99.9
2023-02-15T21:02:57.100Z,99.9
2023-02-15T21:05:27.101Z,99.9
2023-02-15T21:07:57.111Z,99.9
2023-02-15T21:12:57.170Z,99.9
2023-02-15T21:15:27.192Z,99.9
2023-02-15T21:17:57.229Z,99.9
2023-02-15T21:20:27.235Z,99.9
2023-02-15T21:22:57.264Z,99.9
2023-02-15T21:25:27.285Z,99.9
2023-02-15T21:27:57.307Z,99.9
2023-02-15T21:30:27.452Z,99.9
2023-02-15T21:32:57.362Z,99.9
2023-02-15T21:35:27.373Z,99.9
2023-02-15T21:40:27.426Z,99.9
2023-02-15T21:45:27.464Z,99.9
2023-02-15T21:47:57.512Z,99.9
2023-02-15T21:50:27.519Z,99.9
2023-02-15T21:52:57.551Z,99.9
2023-02-15T21:55:27.630Z,99.9
2023-02-15T21:57:57.596Z,99.9
2023-02-15T22:00:27.754Z,99.9
2023-02-15T22:02:57.650Z,99.9
2023-02-15T22:05:27.676Z,99.9
2023-02-15T22:10:27.716Z,99.9
2023-02-15T22:12:57.743Z,99.9
2023-02-15T22:15:27.770Z,99.9
2023-02-15T22:17:57.799Z,99.9
2023-02-15T22:20:27.813Z,99.9
2023-02-15T22:22:57.835Z,99.9
2023-02-15T22:25:27.845Z,99.9
2023-02-15T22:27:57.878Z,99.9
2023-02-15T22:30:27.995Z,99.9
2023-02-15T22:32:57.926Z,99.9
2023-02-15T22:35:27.940Z,99.9
2023-02-15T22:37:57.968Z,99.9
2023-02-15T22:42:58.017Z,99.9
2023-02-15T22:45:28.152Z,99.9
2023-02-15T22:47:58.068Z,99.9
2023-02-15T22:52:58.107Z,99.9
2023-02-15T22:55:28.148Z,99.9
2023-02-15T23:00:28.183Z,99.9
2023-02-15T23:05:28.274Z,99.9
2023-02-15T23:07:58.251Z,99.9
2023-02-15T23:10:28.277Z,99.9
2023-02-15T23:12:58.304Z,99.9
2023-02-15T23:15:28.351Z,99.9
2023-02-15T23:22:58.396Z,99.9
2023-02-15T23:25:28.407Z,99.9
2023-02-15T23:27:58.420Z,99.9
2023-02-15T23:32:58.476Z,99.9
2023-02-15T23:40:28.544Z,99.9
2023-02-15T23:50:28.683Z,99.9
2023-02-15T23:55:28.693Z,99.9
2023-02-15T23:57:58.723Z,99.9
